sensor_id;sensor_type;location;lat;lon;timestamp;temperature;humidity
17348;DHT22;8791;50.876;4.342;2023-04-01T00:01:50;10.40;99.90
17348;DHT22;8791;50.876;4.342;2023-04-01T00:04:17;10.40;99.90
17348;DHT22;8791;50.876;4.342;2023-04-01T00:06:45;10.50;99.90
17348;DHT22;8791;50.876;4.342;2023-04-01T00:09:13;10.40;99.90
17348;DHT22;8791;50.876;4.342;2023-04-01T00:11:40;10.30;99.90
17348;DHT22;8791;50.876;4.342;2023-04-01T00:14:07;10.40;99.90
17348;DHT22;8791;50.876;4.342;2023-04-01T00:16:35;10.50;99.90
17348;DHT22;8791;50.876;4.342;2023-04-01T00:19:02;10.50;99.90
17348;DHT22;8791;50.876;4.342;2023-04-01T00:21:29;10.50;99.90
17348;DHT22;8791;50.876;4.342;2023-04-01T00:23:56;10.50;99.90
17348;DHT22;8791;50.876;4.342;2023-04-01T00:26:23;10.50;99.90
17348;DHT22;8791;50.876;4.342;2023-04-01T00:28:50;10.50;99.90
17348;DHT22;8791;50.876;4.342;2023-04-01T00:31:17;10.50;99.90
17348;DHT22;8791;50.876;4.342;2023-04-01T00:33:45;10.50;99.90
17348;DHT22;8791;50.876;4.342;2023-04-01T00:36:14;10.50;99.90
17348;DHT22;8791;50.876;4.342;2023-04-01T00:38:41;10.50;99.90
17348;DHT22;8791;50.876;4.342;2023-04-01T00:41:09;10.40;99.90
17348;DHT22;8791;50.876;4.342;2023-04-01T00:43:39;10.40;99.90
17348;DHT22;8791;50.876;4.342;2023-04-01T00:46:06;10.30;99.90
17348;DHT22;8791;50.876;4.342;2023-04-01T00:48:36;10.30;99.90
17348;DHT22;8791;50.876;4.342;2023-04-01T00:51:08;10.50;99.90
17348;DHT22;8791;50.876;4.342;2023-04-01T00:53:38;10.40;99.90
17348;DHT22;8791;50.876;4.342;2023-04-01T00:56:11;10.40;99.90
17348;DHT22;8791;50.876;4.342;2023-04-01T00:58:42;10.50;99.90
17348;DHT22;8791;50.876;4.342;2023-04-01T01:01:10;10.60;99.90
17348;DHT22;8791;50.876;4.342;2023-04-01T01:03:37;10.50;99.90
17348;DHT22;8791;50.876;4.342;2023-04-01T01:06:10;10.50;99.90
17348;DHT22;8791;50.876;4.342;2023-04-01T01:08:51;10.60;99.90
17348;DHT22;8791;50.876;4.342;2023-04-01T01:11:22;10.60;99.90
17348;DHT22;8791;50.876;4.342;2023-04-01T01:13:59;10.60;99.90
17348;DHT22;8791;50.876;4.342;2023-04-01T01:16:30;10.50;99.90
17348;DHT22;8791;50.876;4.342;2023-04-01T01:19:07;10.60;99.90
17348;DHT22;8791;50.876;4.342;2023-04-01T01:21:51;10.50;99.90
17348;DHT22;8791;50.876;4.342;2023-04-01T01:24:48;10.60;99.90
17348;DHT22;8791;50.876;4.342;2023-04-01T01:27:18;10.70;99.90
17348;DHT22;8791;50.876;4.342;2023-04-01T01:30:17;10.60;99.90
17348;DHT22;8791;50.876;4.342;2023-04-01T01:33:06;10.50;99.90
17348;DHT22;8791;50.876;4.342;2023-04-01T01:35:40;10.50;99.90
17348;DHT22;8791;50.876;4.342;2023-04-01T01:38:13;10.50;99.90
17348;DHT22;8791;50.876;4.342;2023-04-01T01:40:44;10.60;99.90
17348;DHT22;8791;50.876;4.342;2023-04-01T01:43:14;10.50;99.90
17348;DHT22;8791;50.876;4.342;2023-04-01T01:45:46;10.50;99.90
17348;DHT22;8791;50.876;4.342;2023-04-01T01:48:13;10.50;99.90
17348;DHT22;8791;50.876;4.342;2023-04-01T01:50:44;10.60;99.90
17348;DHT22;8791;50.876;4.342;2023-04-01T01:53:13;10.70;99.90
17348;DHT22;8791;50.876;4.342;2023-04-01T01:55:41;10.60;99.90
17348;DHT22;8791;50.876;4.342;2023-04-01T01:58:12;10.40;99.90
17348;DHT22;8791;50.876;4.342;2023-04-01T02:00:42;10.50;99.90
17348;DHT22;8791;50.876;4.342;2023-04-01T02:03:11;10.60;99.90
17348;DHT22;8791;50.876;4.342;2023-04-01T02:05:39;10.70;99.90
17348;DHT22;8791;50.876;4.342;2023-04-01T02:08:12;10.80;99.90
17348;DHT22;8791;50.876;4.342;2023-04-01T02:10:42;10.70;99.90
17348;DHT22;8791;50.876;4.342;2023-04-01T02:13:14;10.70;99.90
17348;DHT22;8791;50.876;4.342;2023-04-01T02:15:46;10.70;99.90
17348;DHT22;8791;50.876;4.342;2023-04-01T02:18:15;10.60;99.90
17348;DHT22;8791;50.876;4.342;2023-04-01T02:20:43;10.50;99.90
17348;DHT22;8791;50.876;4.342;2023-04-01T02:23:12;10.40;99.90
17348;DHT22;8791;50.876;4.342;2023-04-01T02:25:41;10.30;99.90
17348;DHT22;8791;50.876;4.342;2023-04-01T02:28:10;10.40;99.90
17348;DHT22;8791;50.876;4.342;2023-04-01T02:30:42;10.40;99.90
17348;DHT22;8791;50.876;4.342;2023-04-01T02:33:10;10.30;99.90
17348;DHT22;8791;50.876;4.342;2023-04-01T02:35:38;10.40;99.90
17348;DHT22;8791;50.876;4.342;2023-04-01T02:38:05;10.40;99.90
17348;DHT22;8791;50.876;4.342;2023-04-01T02:40:43;10.20;99.90
17348;DHT22;8791;50.876;4.342;2023-04-01T02:43:11;10.30;99.90
17348;DHT22;8791;50.876;4.342;2023-04-01T02:45:38;10.20;99.90
17348;DHT22;8791;50.876;4.342;2023-04-01T02:48:05;10.10;99.90
17348;DHT22;8791;50.876;4.342;2023-04-01T02:50:32;10.20;99.90
17348;DHT22;8791;50.876;4.342;2023-04-01T02:53:00;10.30;99.90
17348;DHT22;8791;50.876;4.342;2023-04-01T02:55:28;10.30;99.90
17348;DHT22;8791;50.876;4.342;2023-04-01T02:57:56;10.30;99.90
17348;DHT22;8791;50.876;4.342;2023-04-01T03:00:24;10.40;99.90
17348;DHT22;8791;50.876;4.342;2023-04-01T03:02:50;10.50;99.90
17348;DHT22;8791;50.876;4.342;2023-04-01T03:05:17;10.50;99.90
17348;DHT22;8791;50.876;4.342;2023-04-01T03:07:44;10.40;99.90
17348;DHT22;8791;50.876;4.342;2023-04-01T03:10:11;10.40;99.90
17348;DHT22;8791;50.876;4.342;2023-04-01T03:12:38;10.50;99.90
17348;DHT22;8791;50.876;4.342;2023-04-01T03:15:10;10.50;99.90
17348;DHT22;8791;50.876;4.342;2023-04-01T03:17:38;10.60;99.90
17348;DHT22;8791;50.876;4.342;2023-04-01T03:20:06;10.60;99.90
17348;DHT22;8791;50.876;4.342;2023-04-01T03:22:34;10.50;99.90
17348;DHT22;8791;50.876;4.342;2023-04-01T03:25:00;10.40;99.90
17348;DHT22;8791;50.876;4.342;2023-04-01T03:27:27;10.40;99.90
17348;DHT22;8791;50.876;4.342;2023-04-01T03:29:54;10.40;99.90
17348;DHT22;8791;50.876;4.342;2023-04-01T03:32:22;10.40;99.90
17348;DHT22;8791;50.876;4.342;2023-04-01T03:34:49;10.40;99.90
17348;DHT22;8791;50.876;4.342;2023-04-01T03:37:16;10.40;99.90
17348;DHT22;8791;50.876;4.342;2023-04-01T03:39:42;10.30;99.90
17348;DHT22;8791;50.876;4.342;2023-04-01T03:42:09;10.40;99.90
17348;DHT22;8791;50.876;4.342;2023-04-01T03:44:36;10.40;99.90
17348;DHT22;8791;50.876;4.342;2023-04-01T03:47:03;10.50;99.90
17348;DHT22;8791;50.876;4.342;2023-04-01T03:49:32;10.50;99.90
17348;DHT22;8791;50.876;4.342;2023-04-01T03:51:59;10.50;99.90
17348;DHT22;8791;50.876;4.342;2023-04-01T03:54:26;10.60;99.90
17348;DHT22;8791;50.876;4.342;2023-04-01T03:56:53;10.60;99.90
17348;DHT22;8791;50.876;4.342;2023-04-01T03:59:20;10.60;99.90
17348;DHT22;8791;50.876;4.342;2023-04-01T04:01:47;10.70;99.90
17348;DHT22;8791;50.876;4.342;2023-04-01T04:04:14;10.60;99.90
17348;DHT22;8791;50.876;4.342;2023-04-01T04:06:42;10.70;99.90
17348;DHT22;8791;50.876;4.342;2023-04-01T04:09:09;10.50;99.90
17348;DHT22;8791;50.876;4.342;2023-04-01T04:11:36;10.50;99.90
17348;DHT22;8791;50.876;4.342;2023-04-01T04:14:03;10.50;99.90
17348;DHT22;8791;50.876;4.342;2023-04-01T04:16:30;10.50;99.90
17348;DHT22;8791;50.876;4.342;2023-04-01T04:18:57;10.40;99.90
17348;DHT22;8791;50.876;4.342;2023-04-01T04:21:24;10.30;99.90
17348;DHT22;8791;50.876;4.342;2023-04-01T04:23:52;10.40;99.90
17348;DHT22;8791;50.876;4.342;2023-04-01T04:26:19;10.40;99.90
17348;DHT22;8791;50.876;4.342;2023-04-01T04:28:46;10.30;99.90
17348;DHT22;8791;50.876;4.342;2023-04-01T04:31:18;10.30;99.90
17348;DHT22;8791;50.876;4.342;2023-04-01T04:33:46;10.20;99.90
17348;DHT22;8791;50.876;4.342;2023-04-01T04:36:13;10.20;99.90
17348;DHT22;8791;50.876;4.342;2023-04-01T04:38:40;10.20;99.90
17348;DHT22;8791;50.876;4.342;2023-04-01T04:41:10;10.20;99.90
17348;DHT22;8791;50.876;4.342;2023-04-01T04:43:38;10.20;99.90
17348;DHT22;8791;50.876;4.342;2023-04-01T04:46:06;10.10;99.90
17348;DHT22;8791;50.876;4.342;2023-04-01T04:48:32;10.20;99.90
17348;DHT22;8791;50.876;4.342;2023-04-01T04:51:00;10.20;99.90
17348;DHT22;8791;50.876;4.342;2023-04-01T04:53:27;10.30;99.90
17348;DHT22;8791;50.876;4.342;2023-04-01T04:55:54;10.30;99.90
17348;DHT22;8791;50.876;4.342;2023-04-01T04:58:22;10.30;99.90
17348;DHT22;8791;50.876;4.342;2023-04-01T05:00:48;10.30;99.90
17348;DHT22;8791;50.876;4.342;2023-04-01T05:03:15;10.20;99.90
17348;DHT22;8791;50.876;4.342;2023-04-01T05:05:49;10.30;99.90
17348;DHT22;8791;50.876;4.342;2023-04-01T05:08:16;10.20;99.90
17348;DHT22;8791;50.876;4.342;2023-04-01T05:10:43;10.20;99.90
17348;DHT22;8791;50.876;4.342;2023-04-01T05:13:10;10.20;99.90
17348;DHT22;8791;50.876;4.342;2023-04-01T05:15:38;10.20;99.90
17348;DHT22;8791;50.876;4.342;2023-04-01T05:18:05;10.20;99.90
17348;DHT22;8791;50.876;4.342;2023-04-01T05:20:32;10.20;99.90
17348;DHT22;8791;50.876;4.342;2023-04-01T05:22:59;10.30;99.90
17348;DHT22;8791;50.876;4.342;2023-04-01T05:25:26;10.30;99.90
17348;DHT22;8791;50.876;4.342;2023-04-01T05:27:53;10.30;99.90
17348;DHT22;8791;50.876;4.342;2023-04-01T05:30:20;10.30;99.90
17348;DHT22;8791;50.876;4.342;2023-04-01T05:32:48;10.20;99.90
17348;DHT22;8791;50.876;4.342;2023-04-01T05:35:15;10.20;99.90
17348;DHT22;8791;50.876;4.342;2023-04-01T05:37:42;10.00;99.90
17348;DHT22;8791;50.876;4.342;2023-04-01T05:40:10;10.10;99.90
17348;DHT22;8791;50.876;4.342;2023-04-01T05:42:36;10.10;99.90
17348;DHT22;8791;50.876;4.342;2023-04-01T05:45:04;9.90;99.90
17348;DHT22;8791;50.876;4.342;2023-04-01T05:47:31;10.00;99.90
17348;DHT22;8791;50.876;4.342;2023-04-01T05:49:59;10.10;99.90
17348;DHT22;8791;50.876;4.342;2023-04-01T05:52:26;10.10;99.90
17348;DHT22;8791;50.876;4.342;2023-04-01T05:54:53;10.00;99.90
17348;DHT22;8791;50.876;4.342;2023-04-01T05:57:19;10.10;99.90
17348;DHT22;8791;50.876;4.342;2023-04-01T05:59:46;10.10;99.90
17348;DHT22;8791;50.876;4.342;2023-04-01T06:02:15;10.00;99.90
17348;DHT22;8791;50.876;4.342;2023-04-01T06:04:43;10.00;99.90
17348;DHT22;8791;50.876;4.342;2023-04-01T06:07:13;10.00;99.90
17348;DHT22;8791;50.876;4.342;2023-04-01T06:09:42;10.10;99.90
17348;DHT22;8791;50.876;4.342;2023-04-01T06:12:25;10.20;99.90
17348;DHT22;8791;50.876;4.342;2023-04-01T06:15:01;10.10;99.90
17348;DHT22;8791;50.876;4.342;2023-04-01T06:17:41;10.00;99.90
17348;DHT22;8791;50.876;4.342;2023-04-01T06:20:15;10.10;99.90
17348;DHT22;8791;50.876;4.342;2023-04-01T06:25:54;10.20;99.90
17348;DHT22;8791;50.876;4.342;2023-04-01T06:28:49;10.20;99.90
17348;DHT22;8791;50.876;4.342;2023-04-01T06:31:38;10.20;99.90
17348;DHT22;8791;50.876;4.342;2023-04-01T06:34:30;10.10;99.90
17348;DHT22;8791;50.876;4.342;2023-04-01T06:37:29;10.00;99.90
17348;DHT22;8791;50.876;4.342;2023-04-01T06:40:21;10.10;99.90
17348;DHT22;8791;50.876;4.342;2023-04-01T06:42:55;10.00;99.90
17348;DHT22;8791;50.876;4.342;2023-04-01T06:45:33;10.00;99.90
17348;DHT22;8791;50.876;4.342;2023-04-01T06:48:14;10.10;99.90
17348;DHT22;8791;50.876;4.342;2023-04-01T06:50:49;10.10;99.90
17348;DHT22;8791;50.876;4.342;2023-04-01T06:53:24;10.20;99.90
17348;DHT22;8791;50.876;4.342;2023-04-01T06:55:57;10.20;99.90
17348;DHT22;8791;50.876;4.342;2023-04-01T06:58:27;10.30;99.90
17348;DHT22;8791;50.876;4.342;2023-04-01T07:00:58;10.10;99.90
17348;DHT22;8791;50.876;4.342;2023-04-01T07:03:30;10.20;99.90
17348;DHT22;8791;50.876;4.342;2023-04-01T07:06:03;10.20;99.90
17348;DHT22;8791;50.876;4.342;2023-04-01T07:08:31;10.20;99.90
17348;DHT22;8791;50.876;4.342;2023-04-01T07:11:04;10.20;99.90
17348;DHT22;8791;50.876;4.342;2023-04-01T07:13:34;10.20;99.90
17348;DHT22;8791;50.876;4.342;2023-04-01T07:16:11;10.30;99.90
17348;DHT22;8791;50.876;4.342;2023-04-01T07:18:41;10.30;99.90
17348;DHT22;8791;50.876;4.342;2023-04-01T07:21:19;10.30;99.90
17348;DHT22;8791;50.876;4.342;2023-04-01T07:23:47;10.20;99.90
17348;DHT22;8791;50.876;4.342;2023-04-01T07:26:20;10.10;99.90
17348;DHT22;8791;50.876;4.342;2023-04-01T07:28:49;10.10;99.90
17348;DHT22;8791;50.876;4.342;2023-04-01T07:31:25;10.20;99.90
17348;DHT22;8791;50.876;4.342;2023-04-01T07:34:01;10.20;99.90
17348;DHT22;8791;50.876;4.342;2023-04-01T07:36:36;10.10;99.90
17348;DHT22;8791;50.876;4.342;2023-04-01T07:39:13;10.10;99.90
17348;DHT22;8791;50.876;4.342;2023-04-01T07:41:51;10.00;99.90
17348;DHT22;8791;50.876;4.342;2023-04-01T07:44:25;10.10;99.90
17348;DHT22;8791;50.876;4.342;2023-04-01T07:47:04;10.10;99.90
17348;DHT22;8791;50.876;4.342;2023-04-01T07:49:42;10.20;99.90
17348;DHT22;8791;50.876;4.342;2023-04-01T07:52:18;10.20;99.90
17348;DHT22;8791;50.876;4.342;2023-04-01T07:54:50;10.20;99.90
17348;DHT22;8791;50.876;4.342;2023-04-01T07:57:24;10.30;99.90
17348;DHT22;8791;50.876;4.342;2023-04-01T07:59:59;10.20;99.90
17348;DHT22;8791;50.876;4.342;2023-04-01T08:02:39;10.20;99.90
17348;DHT22;8791;50.876;4.342;2023-04-01T08:05:19;10.30;99.90
17348;DHT22;8791;50.876;4.342;2023-04-01T08:07:55;10.30;99.90
17348;DHT22;8791;50.876;4.342;2023-04-01T08:10:30;10.30;99.90
17348;DHT22;8791;50.876;4.342;2023-04-01T08:13:08;10.30;99.90
17348;DHT22;8791;50.876;4.342;2023-04-01T08:15:41;10.20;99.90
17348;DHT22;8791;50.876;4.342;2023-04-01T08:18:23;10.20;99.90
17348;DHT22;8791;50.876;4.342;2023-04-01T08:20:58;10.30;99.90
17348;DHT22;8791;50.876;4.342;2023-04-01T08:23:27;10.20;99.90
17348;DHT22;8791;50.876;4.342;2023-04-01T08:26:00;10.20;99.90
17348;DHT22;8791;50.876;4.342;2023-04-01T08:28:32;10.20;99.90
17348;DHT22;8791;50.876;4.342;2023-04-01T08:31:05;10.20;99.90
17348;DHT22;8791;50.876;4.342;2023-04-01T08:33:33;10.30;99.90
17348;DHT22;8791;50.876;4.342;2023-04-01T08:36:03;10.30;99.90
17348;DHT22;8791;50.876;4.342;2023-04-01T08:38:36;10.30;99.90
17348;DHT22;8791;50.876;4.342;2023-04-01T08:41:21;10.20;99.90
17348;DHT22;8791;50.876;4.342;2023-04-01T08:44:16;10.30;99.90
17348;DHT22;8791;50.876;4.342;2023-04-01T08:49:49;10.30;99.90
17348;DHT22;8791;50.876;4.342;2023-04-01T08:52:34;10.30;99.90
17348;DHT22;8791;50.876;4.342;2023-04-01T08:55:15;10.40;99.90
17348;DHT22;8791;50.876;4.342;2023-04-01T08:57:53;10.40;99.90
17348;DHT22;8791;50.876;4.342;2023-04-01T09:00:30;10.40;99.90
17348;DHT22;8791;50.876;4.342;2023-04-01T09:03:22;10.40;99.90
17348;DHT22;8791;50.876;4.342;2023-04-01T09:06:22;10.40;99.90
17348;DHT22;8791;50.876;4.342;2023-04-01T09:09:11;10.40;99.90
17348;DHT22;8791;50.876;4.342;2023-04-01T09:11:59;10.40;99.90
17348;DHT22;8791;50.876;4.342;2023-04-01T09:17:41;10.50;99.90
17348;DHT22;8791;50.876;4.342;2023-04-01T09:20:40;10.40;99.90
17348;DHT22;8791;50.876;4.342;2023-04-01T09:23:31;10.50;99.90
17348;DHT22;8791;50.876;4.342;2023-04-01T09:29:14;10.60;99.90
17348;DHT22;8791;50.876;4.342;2023-04-01T09:32:00;10.60;99.90
17348;DHT22;8791;50.876;4.342;2023-04-01T09:34:52;10.70;99.90
17348;DHT22;8791;50.876;4.342;2023-04-01T09:37:21;10.70;99.90
17348;DHT22;8791;50.876;4.342;2023-04-01T09:40:14;10.70;99.90
17348;DHT22;8791;50.876;4.342;2023-04-01T09:42:44;10.60;99.90
17348;DHT22;8791;50.876;4.342;2023-04-01T09:45:26;10.70;99.90
17348;DHT22;8791;50.876;4.342;2023-04-01T09:48:04;10.90;99.90
17348;DHT22;8791;50.876;4.342;2023-04-01T09:50:39;11.00;99.90
17348;DHT22;8791;50.876;4.342;2023-04-01T09:53:24;11.00;99.90
17348;DHT22;8791;50.876;4.342;2023-04-01T09:59:24;10.90;99.90
17348;DHT22;8791;50.876;4.342;2023-04-01T10:02:27;11.00;99.90
17348;DHT22;8791;50.876;4.342;2023-04-01T10:05:30;10.90;99.90
17348;DHT22;8791;50.876;4.342;2023-04-01T10:08:26;11.10;99.90
17348;DHT22;8791;50.876;4.342;2023-04-01T10:11:10;10.90;99.90
17348;DHT22;8791;50.876;4.342;2023-04-01T10:13:55;10.90;99.90
17348;DHT22;8791;50.876;4.342;2023-04-01T10:20:07;10.90;99.90
17348;DHT22;8791;50.876;4.342;2023-04-01T10:23:03;11.10;99.90
17348;DHT22;8791;50.876;4.342;2023-04-01T10:26:11;11.10;99.90
17348;DHT22;8791;50.876;4.342;2023-04-01T10:31:55;11.30;99.90
17348;DHT22;8791;50.876;4.342;2023-04-01T10:37:48;11.30;99.90
17348;DHT22;8791;50.876;4.342;2023-04-01T10:40:36;11.40;99.90
17348;DHT22;8791;50.876;4.342;2023-04-01T10:46:35;11.50;99.90
17348;DHT22;8791;50.876;4.342;2023-04-01T10:49:31;11.50;99.90
17348;DHT22;8791;50.876;4.342;2023-04-01T10:55:19;11.50;99.90
17348;DHT22;8791;50.876;4.342;2023-04-01T10:58:48;11.40;99.90
17348;DHT22;8791;50.876;4.342;2023-04-01T11:01:58;11.50;99.90
17348;DHT22;8791;50.876;4.342;2023-04-01T11:04:57;11.60;99.90
17348;DHT22;8791;50.876;4.342;2023-04-01T11:08:03;11.60;99.90
17348;DHT22;8791;50.876;4.342;2023-04-01T11:11:20;11.60;99.90
17348;DHT22;8791;50.876;4.342;2023-04-01T11:14:20;11.50;99.90
17348;DHT22;8791;50.876;4.342;2023-04-01T11:17:12;11.60;99.90
17348;DHT22;8791;50.876;4.342;2023-04-01T11:23:27;11.60;99.90
17348;DHT22;8791;50.876;4.342;2023-04-01T11:26:08;11.50;99.90
17348;DHT22;8791;50.876;4.342;2023-04-01T11:28:52;11.50;99.90
17348;DHT22;8791;50.876;4.342;2023-04-01T11:31:29;11.50;99.90
17348;DHT22;8791;50.876;4.342;2023-04-01T11:34:11;11.50;99.90
17348;DHT22;8791;50.876;4.342;2023-04-01T11:36:49;11.40;99.90
17348;DHT22;8791;50.876;4.342;2023-04-01T11:39:24;11.40;99.90
17348;DHT22;8791;50.876;4.342;2023-04-01T11:42:06;11.40;99.90
17348;DHT22;8791;50.876;4.342;2023-04-01T11:44:40;11.40;99.90
17348;DHT22;8791;50.876;4.342;2023-04-01T11:47:28;11.40;99.90
17348;DHT22;8791;50.876;4.342;2023-04-01T11:50:14;11.40;99.90
17348;DHT22;8791;50.876;4.342;2023-04-01T11:53:00;11.50;99.90
17348;DHT22;8791;50.876;4.342;2023-04-01T11:55:38;11.40;99.90
17348;DHT22;8791;50.876;4.342;2023-04-01T11:58:26;11.40;99.90
17348;DHT22;8791;50.876;4.342;2023-04-01T12:04:05;11.60;99.90
17348;DHT22;8791;50.876;4.342;2023-04-01T12:06:44;11.50;99.90
17348;DHT22;8791;50.876;4.342;2023-04-01T12:09:22;11.60;99.90
17348;DHT22;8791;50.876;4.342;2023-04-01T12:12:01;11.60;99.90
17348;DHT22;8791;50.876;4.342;2023-04-01T12:14:39;11.70;99.90
17348;DHT22;8791;50.876;4.342;2023-04-01T12:17:14;11.60;99.90
17348;DHT22;8791;50.876;4.342;2023-04-01T12:19:51;11.60;99.90
17348;DHT22;8791;50.876;4.342;2023-04-01T12:22:36;11.60;99.90
17348;DHT22;8791;50.876;4.342;2023-04-01T12:25:19;11.50;99.90
17348;DHT22;8791;50.876;4.342;2023-04-01T12:28:03;11.30;99.90
17348;DHT22;8791;50.876;4.342;2023-04-01T12:30:48;11.20;99.90
17348;DHT22;8791;50.876;4.342;2023-04-01T12:33:35;11.00;99.90
17348;DHT22;8791;50.876;4.342;2023-04-01T12:36:11;11.00;99.90
17348;DHT22;8791;50.876;4.342;2023-04-01T12:38:50;10.90;99.90
17348;DHT22;8791;50.876;4.342;2023-04-01T12:41:24;10.90;99.90
17348;DHT22;8791;50.876;4.342;2023-04-01T12:44:05;10.80;99.90
17348;DHT22;8791;50.876;4.342;2023-04-01T12:46:52;10.80;99.90
17348;DHT22;8791;50.876;4.342;2023-04-01T12:49:32;10.70;99.90
17348;DHT22;8791;50.876;4.342;2023-04-01T12:52:10;10.70;99.90
17348;DHT22;8791;50.876;4.342;2023-04-01T12:55:15;10.80;99.90
17348;DHT22;8791;50.876;4.342;2023-04-01T13:01:00;11.00;99.90
17348;DHT22;8791;50.876;4.342;2023-04-01T13:06:38;11.10;99.90
17348;DHT22;8791;50.876;4.342;2023-04-01T13:09:20;11.10;99.90
17348;DHT22;8791;50.876;4.342;2023-04-01T13:12:10;11.10;99.90
17348;DHT22;8791;50.876;4.342;2023-04-01T13:17:47;10.90;99.90
17348;DHT22;8791;50.876;4.342;2023-04-01T13:20:23;10.80;99.90
17348;DHT22;8791;50.876;4.342;2023-04-01T13:23:01;10.80;99.90
17348;DHT22;8791;50.876;4.342;2023-04-01T13:25:36;10.80;99.90
17348;DHT22;8791;50.876;4.342;2023-04-01T13:28:13;10.90;99.90
17348;DHT22;8791;50.876;4.342;2023-04-01T13:30:47;11.00;99.90
17348;DHT22;8791;50.876;4.342;2023-04-01T13:33:20;11.00;99.90
17348;DHT22;8791;50.876;4.342;2023-04-01T13:36:01;11.00;99.90
17348;DHT22;8791;50.876;4.342;2023-04-01T13:41:47;11.10;99.90
17348;DHT22;8791;50.876;4.342;2023-04-01T13:44:29;11.10;99.90
17348;DHT22;8791;50.876;4.342;2023-04-01T13:47:12;11.20;99.90
17348;DHT22;8791;50.876;4.342;2023-04-01T13:50:23;11.30;99.90
17348;DHT22;8791;50.876;4.342;2023-04-01T13:53:05;11.30;99.90
17348;DHT22;8791;50.876;4.342;2023-04-01T13:55:48;11.40;99.90
17348;DHT22;8791;50.876;4.342;2023-04-01T13:58:37;11.50;99.90
17348;DHT22;8791;50.876;4.342;2023-04-01T14:01:13;11.50;99.90
17348;DHT22;8791;50.876;4.342;2023-04-01T14:04:10;11.50;99.90
17348;DHT22;8791;50.876;4.342;2023-04-01T14:06:53;11.50;99.90
17348;DHT22;8791;50.876;4.342;2023-04-01T14:09:53;11.50;99.90
17348;DHT22;8791;50.876;4.342;2023-04-01T14:12:31;11.60;99.90
17348;DHT22;8791;50.876;4.342;2023-04-01T14:15:18;11.60;99.90
17348;DHT22;8791;50.876;4.342;2023-04-01T14:18:03;11.50;99.90
17348;DHT22;8791;50.876;4.342;2023-04-01T14:20:40;11.50;99.90
17348;DHT22;8791;50.876;4.342;2023-04-01T14:26:30;11.50;99.90
17348;DHT22;8791;50.876;4.342;2023-04-01T14:29:09;11.60;99.90
17348;DHT22;8791;50.876;4.342;2023-04-01T14:31:48;11.60;99.90
17348;DHT22;8791;50.876;4.342;2023-04-01T14:34:40;11.60;99.90
17348;DHT22;8791;50.876;4.342;2023-04-01T14:37:23;11.60;99.90
17348;DHT22;8791;50.876;4.342;2023-04-01T14:43:18;11.40;99.90
17348;DHT22;8791;50.876;4.342;2023-04-01T14:46:01;11.50;99.90
17348;DHT22;8791;50.876;4.342;2023-04-01T14:48:34;11.40;99.90
17348;DHT22;8791;50.876;4.342;2023-04-01T14:51:10;11.30;99.90
17348;DHT22;8791;50.876;4.342;2023-04-01T14:53:44;11.40;99.90
17348;DHT22;8791;50.876;4.342;2023-04-01T14:56:36;11.50;99.90
17348;DHT22;8791;50.876;4.342;2023-04-01T14:59:13;11.60;99.90
17348;DHT22;8791;50.876;4.342;2023-04-01T15:01:47;11.60;99.90
17348;DHT22;8791;50.876;4.342;2023-04-01T15:10:31;11.40;99.90
17348;DHT22;8791;50.876;4.342;2023-04-01T15:13:08;11.40;99.90
17348;DHT22;8791;50.876;4.342;2023-04-01T15:15:48;11.30;99.90
17348;DHT22;8791;50.876;4.342;2023-04-01T15:18:26;11.20;99.90
17348;DHT22;8791;50.876;4.342;2023-04-01T15:21:10;11.10;99.90
17348;DHT22;8791;50.876;4.342;2023-04-01T15:23:50;11.20;99.90
17348;DHT22;8791;50.876;4.342;2023-04-01T15:29:26;11.40;99.90
17348;DHT22;8791;50.876;4.342;2023-04-01T15:32:02;11.40;99.90
17348;DHT22;8791;50.876;4.342;2023-04-01T15:34:42;11.20;99.90
17348;DHT22;8791;50.876;4.342;2023-04-01T15:37:14;11.20;99.90
17348;DHT22;8791;50.876;4.342;2023-04-01T15:39:53;11.20;99.90
17348;DHT22;8791;50.876;4.342;2023-04-01T15:42:32;11.00;99.90
17348;DHT22;8791;50.876;4.342;2023-04-01T15:45:15;10.90;99.90
17348;DHT22;8791;50.876;4.342;2023-04-01T15:47:46;11.00;99.90
17348;DHT22;8791;50.876;4.342;2023-04-01T15:50:43;10.90;99.90
17348;DHT22;8791;50.876;4.342;2023-04-01T15:53:26;10.70;99.90
17348;DHT22;8791;50.876;4.342;2023-04-01T15:55:59;10.70;99.90
17348;DHT22;8791;50.876;4.342;2023-04-01T15:58:44;10.70;99.90
17348;DHT22;8791;50.876;4.342;2023-04-01T16:01:31;10.70;99.90
17348;DHT22;8791;50.876;4.342;2023-04-01T16:04:14;10.70;99.90
17348;DHT22;8791;50.876;4.342;2023-04-01T16:06:51;10.80;99.90
17348;DHT22;8791;50.876;4.342;2023-04-01T16:09:36;10.70;99.90
17348;DHT22;8791;50.876;4.342;2023-04-01T16:12:16;10.60;99.90
17348;DHT22;8791;50.876;4.342;2023-04-01T16:14:55;10.60;99.90
17348;DHT22;8791;50.876;4.342;2023-04-01T16:17:41;10.50;99.90
17348;DHT22;8791;50.876;4.342;2023-04-01T16:20:18;10.50;99.90
17348;DHT22;8791;50.876;4.342;2023-04-01T16:22:55;10.60;99.90
17348;DHT22;8791;50.876;4.342;2023-04-01T16:25:32;10.60;99.90
17348;DHT22;8791;50.876;4.342;2023-04-01T16:28:16;10.60;99.90
17348;DHT22;8791;50.876;4.342;2023-04-01T16:30:50;10.70;99.90
17348;DHT22;8791;50.876;4.342;2023-04-01T16:33:32;10.60;99.90
17348;DHT22;8791;50.876;4.342;2023-04-01T16:36:09;10.60;99.90
17348;DHT22;8791;50.876;4.342;2023-04-01T16:38:40;10.60;99.90
17348;DHT22;8791;50.876;4.342;2023-04-01T16:41:17;10.60;99.90
17348;DHT22;8791;50.876;4.342;2023-04-01T16:43:49;10.60;99.90
17348;DHT22;8791;50.876;4.342;2023-04-01T16:46:35;10.70;99.90
17348;DHT22;8791;50.876;4.342;2023-04-01T16:49:23;10.60;99.90
17348;DHT22;8791;50.876;4.342;2023-04-01T16:51:54;10.60;99.90
17348;DHT22;8791;50.876;4.342;2023-04-01T16:54:35;10.60;99.90
17348;DHT22;8791;50.876;4.342;2023-04-01T16:57:12;10.70;99.90
17348;DHT22;8791;50.876;4.342;2023-04-01T16:59:47;10.70;99.90
17348;DHT22;8791;50.876;4.342;2023-04-01T17:02:23;10.70;99.90
17348;DHT22;8791;50.876;4.342;2023-04-01T17:04:57;10.60;99.90
17348;DHT22;8791;50.876;4.342;2023-04-01T17:07:37;10.60;99.90
17348;DHT22;8791;50.876;4.342;2023-04-01T17:10:21;10.50;99.90
17348;DHT22;8791;50.876;4.342;2023-04-01T17:13:01;10.40;99.90
17348;DHT22;8791;50.876;4.342;2023-04-01T17:15:36;10.30;99.90
17348;DHT22;8791;50.876;4.342;2023-04-01T17:18:09;10.30;99.90
17348;DHT22;8791;50.876;4.342;2023-04-01T17:20:42;10.30;99.90
17348;DHT22;8791;50.876;4.342;2023-04-01T17:23:18;10.40;99.90
17348;DHT22;8791;50.876;4.342;2023-04-01T17:25:57;10.20;99.90
17348;DHT22;8791;50.876;4.342;2023-04-01T17:28:36;10.20;99.90
17348;DHT22;8791;50.876;4.342;2023-04-01T17:31:21;10.20;99.90
17348;DHT22;8791;50.876;4.342;2023-04-01T17:33:57;10.30;99.90
17348;DHT22;8791;50.876;4.342;2023-04-01T17:36:36;10.30;99.90
17348;DHT22;8791;50.876;4.342;2023-04-01T17:39:30;10.30;99.90
17348;DHT22;8791;50.876;4.342;2023-04-01T17:42:06;10.30;99.90
17348;DHT22;8791;50.876;4.342;2023-04-01T17:44:45;10.30;99.90
17348;DHT22;8791;50.876;4.342;2023-04-01T17:47:27;10.30;99.90
17348;DHT22;8791;50.876;4.342;2023-04-01T17:50:02;10.30;99.90